createdAt,value
2016-12-22T00:04:09.449Z,-69
2016-12-22T00:09:05.903Z,-69
2016-12-22T00:14:02.257Z,-68
2016-12-22T00:18:58.607Z,-67
2016-12-22T00:23:54.748Z,-68
2016-12-22T00:28:51.881Z,-67
2016-12-22T00:33:48.437Z,-68
2016-12-22T00:38:44.889Z,-70
2016-12-22T00:43:42.297Z,-66
2016-12-22T00:48:39.110Z,-66
2016-12-22T00:53:35.917Z,-68
2016-12-22T00:58:32.660Z,-68
2016-12-22T01:03:29.020Z,-69
2016-12-22T01:08:26.182Z,-69
2016-12-22T01:13:22.607Z,-65
2016-12-22T01:18:19.111Z,-67
2016-12-22T01:23:15.760Z,-66
2016-12-22T01:28:12.758Z,-66
2016-12-22T01:33:09.193Z,-65
2016-12-22T01:38:05.225Z,-66
2016-12-22T01:43:01.611Z,-66
2016-12-22T01:47:58.686Z,-67
2016-12-22T01:52:55.101Z,-64
2016-12-22T01:57:54.160Z,-66
2016-12-22T02:02:50.026Z,-67
2016-12-22T02:07:46.470Z,-66
2016-12-22T02:12:42.955Z,-66
2016-12-22T02:17:39.406Z,-67
2016-12-22T02:22:35.778Z,-66
2016-12-22T02:27:32.618Z,-67
2016-12-22T02:32:29.187Z,-67
2016-12-22T02:37:25.626Z,-66
2016-12-22T02:42:22.121Z,-67
2016-12-22T02:47:18.406Z,-67
2016-12-22T02:52:14.759Z,-66
2016-12-22T02:57:11.158Z,-67
2016-12-22T03:02:07.446Z,-67
2016-12-22T03:07:03.988Z,-66
2016-12-22T03:12:00.264Z,-66
2016-12-22T03:16:56.750Z,-66
2016-12-22T03:21:53.294Z,-67
2016-12-22T03:26:49.784Z,-66
2016-12-22T03:31:46.264Z,-66
2016-12-22T03:36:42.583Z,-67
2016-12-22T03:41:39.021Z,-66
2016-12-22T03:46:35.517Z,-66
2016-12-22T03:51:32.011Z,-68
2016-12-22T03:56:28.292Z,-67
2016-12-22T04:01:25.299Z,-67
2016-12-22T04:06:21.659Z,-65
2016-12-22T04:11:18.179Z,-67
2016-12-22T04:16:14.732Z,-67
2016-12-22T04:21:10.979Z,-66
2016-12-22T04:26:07.454Z,-67
2016-12-22T04:31:04.218Z,-67
2016-12-22T04:36:00.715Z,-68
2016-12-22T04:40:57.277Z,-66
2016-12-22T04:45:53.767Z,-66
2016-12-22T04:50:50.176Z,-67
2016-12-22T04:55:46.677Z,-67
2016-12-22T05:00:43.270Z,-67
2016-12-22T05:05:39.317Z,-66
2016-12-22T05:10:41.972Z,-66
2016-12-22T05:15:37.716Z,-66
2016-12-22T05:20:34.199Z,-68
2016-12-22T05:25:30.565Z,-66
2016-12-22T05:30:27.796Z,-66
2016-12-22T05:35:24.990Z,-66
2016-12-22T05:40:21.496Z,-66
2016-12-22T05:45:21.167Z,-67
2016-12-22T05:50:16.910Z,-67
2016-12-22T05:55:13.322Z,-67
2016-12-22T06:00:09.665Z,-66
2016-12-22T06:05:06.169Z,-68
2016-12-22T06:10:02.667Z,-68
2016-12-22T06:14:59.315Z,-67
2016-12-22T06:19:55.694Z,-67
2016-12-22T06:24:52.047Z,-66
2016-12-22T06:29:48.728Z,-66
2016-12-22T06:34:45.148Z,-67
2016-12-22T06:39:41.631Z,-67
2016-12-22T06:44:38.814Z,-67
2016-12-22T06:49:35.194Z,-67
2016-12-22T06:54:31.675Z,-69
2016-12-22T06:59:28.151Z,-67
2016-12-22T07:04:24.630Z,-68
2016-12-22T07:09:21.121Z,-66
2016-12-22T07:14:18.067Z,-67
2016-12-22T07:19:15.629Z,-68
2016-12-22T07:24:12.500Z,-66
2016-12-22T07:29:08.807Z,-67
2016-12-22T07:34:05.569Z,-70
2016-12-22T07:39:02.092Z,-67
2016-12-22T07:43:58.299Z,-67
2016-12-22T07:48:54.912Z,-70
2016-12-22T07:53:51.285Z,-70
2016-12-22T07:58:48.572Z,-68
2016-12-22T08:03:44.870Z,-68
2016-12-22T08:08:41.315Z,-70
2016-12-22T08:13:37.793Z,-71
2016-12-22T08:18:33.738Z,-67
2016-12-22T08:23:30.237Z,-67
2016-12-22T08:28:27.317Z,-69
2016-12-22T08:33:24.510Z,-67
2016-12-22T08:38:20.844Z,-67
2016-12-22T08:43:16.859Z,-67
2016-12-22T08:48:13.355Z,-70
2016-12-22T08:53:09.926Z,-70
2016-12-22T08:58:06.080Z,-68
2016-12-22T09:03:02.721Z,-69
2016-12-22T09:07:58.832Z,-68
2016-12-22T09:12:56.080Z,-67
2016-12-22T09:17:52.499Z,-67
2016-12-22T09:22:48.957Z,-66
2016-12-22T09:27:45.463Z,-66
2016-12-22T09:32:42.014Z,-67
2016-12-22T09:37:39.345Z,-66
2016-12-22T09:42:35.845Z,-65
2016-12-22T09:47:32.272Z,-66
2016-12-22T09:52:28.637Z,-64
2016-12-22T09:57:25.122Z,-67
2016-12-22T10:02:21.329Z,-71
2016-12-22T10:07:18.275Z,-67
2016-12-22T10:12:14.797Z,-67
2016-12-22T10:17:11.306Z,-66
2016-12-22T10:22:07.772Z,-68
2016-12-22T10:27:04.391Z,-66
2016-12-22T10:32:01.446Z,-65
2016-12-22T10:36:57.908Z,-65
2016-12-22T10:41:54.243Z,-65
2016-12-22T10:46:50.957Z,-73
2016-12-22T10:51:47.407Z,-65
2016-12-22T10:56:43.975Z,-71
2016-12-22T11:01:41.176Z,-65
2016-12-22T11:06:37.652Z,-66
2016-12-22T11:11:34.100Z,-66
2016-12-22T11:16:31.771Z,-68
2016-12-22T11:21:27.974Z,-66
2016-12-22T11:26:24.364Z,-65
2016-12-22T11:31:20.971Z,-65
2016-12-22T11:36:17.455Z,-65
2016-12-22T11:41:14.040Z,-66
2016-12-22T11:46:10.812Z,-65
2016-12-22T11:51:07.183Z,-68
2016-12-22T11:56:04.140Z,-68
2016-12-22T12:01:00.548Z,-67
2016-12-22T12:05:56.985Z,-69
2016-12-22T12:10:53.575Z,-67
2016-12-22T12:15:50.132Z,-66
2016-12-22T12:20:46.473Z,-64
2016-12-22T12:25:42.823Z,-66
2016-12-22T12:30:39.299Z,-66
2016-12-22T12:40:35.922Z,-68
2016-12-22T12:45:32.333Z,-70
2016-12-22T12:50:29.567Z,-67
2016-12-22T12:55:26.396Z,-65
2016-12-22T13:00:22.648Z,-66
2016-12-22T13:05:19.196Z,-72
2016-12-22T13:10:15.481Z,-70
2016-12-22T13:15:12.985Z,-71
2016-12-22T13:20:08.721Z,-69
2016-12-22T13:25:07.554Z,-70
2016-12-22T13:30:03.486Z,-72
2016-12-22T13:35:00.289Z,-70
2016-12-22T13:39:56.750Z,-69
2016-12-22T13:44:53.092Z,-71
2016-12-22T13:49:49.872Z,-71
2016-12-22T13:54:46.283Z,-68
2016-12-22T13:59:42.767Z,-71
2016-12-22T14:04:39.312Z,-68
2016-12-22T14:09:35.869Z,-69
2016-12-22T14:14:32.422Z,-73
2016-12-22T14:19:28.794Z,-71
2016-12-22T14:24:25.325Z,-68
2016-12-22T14:29:22.852Z,-71
2016-12-22T14:34:18.910Z,-70
2016-12-22T14:39:15.725Z,-68
2016-12-22T14:44:12.377Z,-71
2016-12-22T14:49:09.158Z,-73
2016-12-22T14:54:06.187Z,-72
2016-12-22T14:59:02.967Z,-70
2016-12-22T15:03:59.897Z,-68
2016-12-22T15:08:56.224Z,-68
2016-12-22T15:13:52.772Z,-69
2016-12-22T15:18:49.332Z,-71
2016-12-22T15:23:46.171Z,-70
2016-12-22T15:28:43.828Z,-76
2016-12-22T15:33:39.931Z,-69
2016-12-22T15:38:36.494Z,-74
2016-12-22T15:43:34.248Z,-71
2016-12-22T15:48:30.380Z,-72
2016-12-22T15:53:27.483Z,-73
2016-12-22T15:58:23.971Z,-71
2016-12-22T16:03:20.330Z,-71
2016-12-22T16:08:17.867Z,-71
2016-12-22T16:13:14.114Z,-69
2016-12-22T16:18:10.610Z,-72
2016-12-22T16:23:07.258Z,-74
2016-12-22T16:28:04.461Z,-81
2016-12-22T16:33:00.827Z,-69
2016-12-22T16:37:57.236Z,-78
2016-12-22T16:42:53.452Z,-84
2016-12-22T16:47:49.918Z,-80
2016-12-22T16:52:46.397Z,-71
2016-12-22T16:57:42.746Z,-85
2016-12-22T17:02:39.118Z,-73
2016-12-22T17:07:35.537Z,-76
2016-12-22T17:12:32.169Z,-75
2016-12-22T17:17:28.770Z,-70
2016-12-22T17:22:25.218Z,-71
2016-12-22T17:27:21.717Z,-73
2016-12-22T17:32:17.971Z,-70
2016-12-22T17:37:14.470Z,-73
2016-12-22T17:42:10.819Z,-68
2016-12-22T17:47:07.189Z,-71
2016-12-22T17:52:03.222Z,-70
2016-12-22T17:56:59.697Z,-71
2016-12-22T18:01:56.035Z,-70
2016-12-22T18:06:52.321Z,-70
2016-12-22T18:11:48.793Z,-69
2016-12-22T18:16:45.276Z,-69
2016-12-22T18:21:42.279Z,-76
2016-12-22T18:26:38.664Z,-76
2016-12-22T18:31:35.172Z,-69
2016-12-22T18:36:31.619Z,-70
2016-12-22T18:41:29.104Z,-70
2016-12-22T18:46:25.402Z,-74
2016-12-22T18:51:21.777Z,-73
2016-12-22T18:56:18.389Z,-69
2016-12-22T19:01:14.872Z,-75
2016-12-22T19:06:11.368Z,-74
2016-12-22T19:11:08.054Z,-73
2016-12-22T19:16:04.739Z,-74
2016-12-22T19:21:01.078Z,-71
2016-12-22T19:25:57.497Z,-70
2016-12-22T19:30:53.881Z,-76
2016-12-22T19:35:50.301Z,-72
2016-12-22T19:40:46.713Z,-69
2016-12-22T19:45:43.067Z,-68
2016-12-22T19:50:39.519Z,-71
2016-12-22T19:55:36.208Z,-70
2016-12-22T20:00:33.308Z,-71
2016-12-22T20:05:30.501Z,-72
2016-12-22T20:10:27.744Z,-71
2016-12-22T20:15:24.718Z,-71
2016-12-22T20:20:21.145Z,-67
2016-12-22T20:25:18.211Z,-72
2016-12-22T20:30:14.404Z,-69
2016-12-22T20:35:15.694Z,-70
2016-12-22T20:40:11.199Z,-71
2016-12-22T20:45:09.736Z,-75
2016-12-22T20:50:06.302Z,-72
2016-12-22T20:55:03.188Z,-69
2016-12-22T20:59:59.814Z,-74
2016-12-22T21:04:56.039Z,-71
2016-12-22T21:09:52.434Z,-69
2016-12-22T21:14:49.115Z,-69
2016-12-22T21:19:45.729Z,-73
2016-12-22T21:24:42.161Z,-71
2016-12-22T21:29:38.676Z,-71
2016-12-22T21:34:34.921Z,-67
2016-12-22T21:39:31.546Z,-68
2016-12-22T21:44:28.021Z,-74
2016-12-22T21:49:24.684Z,-70
2016-12-22T21:54:20.889Z,-80
2016-12-22T21:59:18.264Z,-83
2016-12-22T22:04:14.608Z,-82
2016-12-22T22:09:10.986Z,-83
2016-12-22T22:14:07.481Z,-74
2016-12-22T22:19:03.850Z,-83
2016-12-22T22:24:00.501Z,-71
2016-12-22T22:28:57.385Z,-80
2016-12-22T22:33:54.210Z,-71
2016-12-22T22:38:50.279Z,-78
2016-12-22T22:43:46.528Z,-80
2016-12-22T22:48:43.681Z,-77
2016-12-22T22:53:39.959Z,-82
2016-12-22T22:58:36.465Z,-74
2016-12-22T23:03:32.795Z,-77
2016-12-22T23:08:29.968Z,-77
2016-12-22T23:13:26.184Z,-82
2016-12-22T23:18:22.561Z,-81
2016-12-22T23:23:19.633Z,-82
2016-12-22T23:28:16.878Z,-82
2016-12-22T23:33:13.325Z,-74
2016-12-22T23:38:09.795Z,-75
2016-12-22T23:43:06.205Z,-75
2016-12-22T23:48:02.755Z,-74
2016-12-22T23:52:59.249Z,-73
2016-12-22T23:57:58.217Z,-76
